sensor_id;sensor_type;location;lat;lon;timestamp;pressure;altitude;pressure_sealevel;temperature;humidity
79538;BME280;68989;52.032;5.152;2024-02-26T00:01:18;100093.87;;;10.15;63.83
79538;BME280;68989;52.032;5.152;2024-02-26T00:03:46;100094.97;;;10.05;64.34
79538;BME280;68989;52.032;5.152;2024-02-26T00:06:13;100096.05;;;10.04;64.40
79538;BME280;68989;52.032;5.152;2024-02-26T00:08:40;100095.57;;;10.08;64.40
79538;BME280;68989;52.032;5.152;2024-02-26T00:11:07;100092.69;;;10.07;64.29
79538;BME280;68989;52.032;5.152;2024-02-26T00:13:34;100092.36;;;10.09;64.32
79538;BME280;68989;52.032;5.152;2024-02-26T00:16:01;100092.88;;;10.07;64.16
79538;BME280;68989;52.032;5.152;2024-02-26T00:18:27;100096.94;;;10.09;64.32
79538;BME280;68989;52.032;5.152;2024-02-26T00:20:54;100101.51;;;10.11;64.18
79538;BME280;68989;52.032;5.152;2024-02-26T00:23:21;100104.24;;;10.13;64.02
79538;BME280;68989;52.032;5.152;2024-02-26T00:25:48;100098.94;;;10.18;64.04
79538;BME280;68989;52.032;5.152;2024-02-26T00:28:15;100098.22;;;10.17;63.69
79538;BME280;68989;52.032;5.152;2024-02-26T00:30:42;100102.28;;;10.18;63.88
79538;BME280;68989;52.032;5.152;2024-02-26T00:33:10;100103.32;;;10.14;63.87
79538;BME280;68989;52.032;5.152;2024-02-26T00:35:37;100105.08;;;10.12;63.89
79538;BME280;68989;52.032;5.152;2024-02-26T00:38:04;100104.40;;;10.10;63.79
79538;BME280;68989;52.032;5.152;2024-02-26T00:40:31;100101.23;;;10.09;63.81
79538;BME280;68989;52.032;5.152;2024-02-26T00:42:58;100101.66;;;9.99;64.28
79538;BME280;68989;52.032;5.152;2024-02-26T00:45:24;100099.21;;;9.97;64.06
79538;BME280;68989;52.032;5.152;2024-02-26T00:47:51;100097.21;;;9.90;64.28
79538;BME280;68989;52.032;5.152;2024-02-26T00:50:19;100097.12;;;9.86;64.61
79538;BME280;68989;52.032;5.152;2024-02-26T00:52:46;100096.16;;;9.93;64.39
79538;BME280;68989;52.032;5.152;2024-02-26T00:55:13;100097.28;;;9.92;64.55
79538;BME280;68989;52.032;5.152;2024-02-26T00:57:41;100100.00;;;9.96;64.64
79538;BME280;68989;52.032;5.152;2024-02-26T01:00:09;100099.45;;;10.04;64.21
79538;BME280;68989;52.032;5.152;2024-02-26T01:02:36;100093.68;;;9.91;64.28
79538;BME280;68989;52.032;5.152;2024-02-26T01:05:03;100091.42;;;9.79;65.08
79538;BME280;68989;52.032;5.152;2024-02-26T01:07:29;100090.33;;;9.82;65.32
79538;BME280;68989;52.032;5.152;2024-02-26T01:09:56;100089.12;;;9.78;65.16
79538;BME280;68989;52.032;5.152;2024-02-26T01:12:23;100093.40;;;9.83;65.16
79538;BME280;68989;52.032;5.152;2024-02-26T01:14:50;100096.15;;;9.71;65.10
79538;BME280;68989;52.032;5.152;2024-02-26T01:17:17;100094.14;;;9.68;65.41
79538;BME280;68989;52.032;5.152;2024-02-26T01:19:44;100092.47;;;9.69;65.24
79538;BME280;68989;52.032;5.152;2024-02-26T01:22:11;100095.95;;;9.68;65.21
79538;BME280;68989;52.032;5.152;2024-02-26T01:24:38;100088.35;;;9.75;64.93
79538;BME280;68989;52.032;5.152;2024-02-26T01:27:05;100096.63;;;9.77;64.70
79538;BME280;68989;52.032;5.152;2024-02-26T01:29:31;100097.76;;;9.84;64.63
79538;BME280;68989;52.032;5.152;2024-02-26T01:31:58;100096.92;;;9.85;64.55
79538;BME280;68989;52.032;5.152;2024-02-26T01:34:25;100098.74;;;9.64;64.63
79538;BME280;68989;52.032;5.152;2024-02-26T01:36:52;100098.88;;;9.67;65.12
79538;BME280;68989;52.032;5.152;2024-02-26T01:39:19;100098.28;;;9.72;64.84
79538;BME280;68989;52.032;5.152;2024-02-26T01:41:46;100097.15;;;9.71;64.52
79538;BME280;68989;52.032;5.152;2024-02-26T01:44:14;100095.27;;;9.71;64.72
79538;BME280;68989;52.032;5.152;2024-02-26T01:46:41;100098.36;;;9.74;64.39
79538;BME280;68989;52.032;5.152;2024-02-26T01:49:09;100097.10;;;9.72;64.44
79538;BME280;68989;52.032;5.152;2024-02-26T01:51:39;100101.04;;;9.61;64.81
79538;BME280;68989;52.032;5.152;2024-02-26T01:54:08;100107.06;;;9.67;65.03
79538;BME280;68989;52.032;5.152;2024-02-26T01:56:36;100103.42;;;9.68;64.45
79538;BME280;68989;52.032;5.152;2024-02-26T01:59:04;100101.29;;;9.71;64.42
79538;BME280;68989;52.032;5.152;2024-02-26T02:02:08;100101.21;;;9.72;64.44
79538;BME280;68989;52.032;5.152;2024-02-26T02:04:38;100099.97;;;9.77;64.40
79538;BME280;68989;52.032;5.152;2024-02-26T02:07:05;100102.93;;;9.81;64.27
79538;BME280;68989;52.032;5.152;2024-02-26T02:09:33;100106.96;;;9.83;63.93
79538;BME280;68989;52.032;5.152;2024-02-26T02:12:00;100118.03;;;9.83;63.65
79538;BME280;68989;52.032;5.152;2024-02-26T02:14:28;100125.67;;;9.82;63.76
79538;BME280;68989;52.032;5.152;2024-02-26T02:16:54;100122.54;;;9.82;63.85
79538;BME280;68989;52.032;5.152;2024-02-26T02:19:22;100125.12;;;9.81;63.96
79538;BME280;68989;52.032;5.152;2024-02-26T02:21:49;100132.04;;;9.86;63.79
79538;BME280;68989;52.032;5.152;2024-02-26T02:24:16;100129.32;;;9.92;63.38
79538;BME280;68989;52.032;5.152;2024-02-26T02:26:43;100125.62;;;9.95;63.50
79538;BME280;68989;52.032;5.152;2024-02-26T02:29:11;100125.57;;;10.01;63.43
79538;BME280;68989;52.032;5.152;2024-02-26T02:31:38;100131.09;;;10.01;63.27
79538;BME280;68989;52.032;5.152;2024-02-26T02:34:05;100138.44;;;10.00;63.08
79538;BME280;68989;52.032;5.152;2024-02-26T02:36:33;100140.60;;;10.01;63.48
79538;BME280;68989;52.032;5.152;2024-02-26T02:38:59;100144.49;;;9.99;63.28
79538;BME280;68989;52.032;5.152;2024-02-26T02:41:26;100140.90;;;10.00;63.49
79538;BME280;68989;52.032;5.152;2024-02-26T02:43:53;100137.62;;;10.10;63.19
79538;BME280;68989;52.032;5.152;2024-02-26T02:46:20;100143.21;;;10.09;62.70
79538;BME280;68989;52.032;5.152;2024-02-26T02:48:47;100153.84;;;9.97;63.07
79538;BME280;68989;52.032;5.152;2024-02-26T02:51:14;100158.91;;;9.98;63.13
79538;BME280;68989;52.032;5.152;2024-02-26T02:53:41;100161.64;;;9.93;63.28
79538;BME280;68989;52.032;5.152;2024-02-26T02:56:07;100163.46;;;9.90;63.45
79538;BME280;68989;52.032;5.152;2024-02-26T02:58:34;100174.27;;;9.92;63.61
79538;BME280;68989;52.032;5.152;2024-02-26T03:01:01;100186.23;;;10.01;63.76
79538;BME280;68989;52.032;5.152;2024-02-26T03:03:28;100186.08;;;10.15;63.45
79538;BME280;68989;52.032;5.152;2024-02-26T03:05:55;100187.31;;;10.18;62.93
79538;BME280;68989;52.032;5.152;2024-02-26T03:08:22;100186.67;;;10.15;62.85
79538;BME280;68989;52.032;5.152;2024-02-26T03:10:49;100182.21;;;10.10;62.73
79538;BME280;68989;52.032;5.152;2024-02-26T03:13:21;100182.13;;;10.00;63.05
79538;BME280;68989;52.032;5.152;2024-02-26T03:15:48;100181.12;;;10.02;62.91
79538;BME280;68989;52.032;5.152;2024-02-26T03:18:15;100188.19;;;9.95;63.03
79538;BME280;68989;52.032;5.152;2024-02-26T03:20:42;100186.59;;;9.92;63.31
79538;BME280;68989;52.032;5.152;2024-02-26T03:23:09;100187.46;;;9.85;63.54
79538;BME280;68989;52.032;5.152;2024-02-26T03:25:36;100190.35;;;9.89;63.71
79538;BME280;68989;52.032;5.152;2024-02-26T03:28:03;100198.22;;;9.91;63.47
79538;BME280;68989;52.032;5.152;2024-02-26T03:30:30;100200.22;;;9.92;63.36
79538;BME280;68989;52.032;5.152;2024-02-26T03:32:57;100201.25;;;9.91;63.06
79538;BME280;68989;52.032;5.152;2024-02-26T03:35:24;100206.09;;;9.91;62.88
79538;BME280;68989;52.032;5.152;2024-02-26T03:37:51;100207.31;;;9.92;63.38
79538;BME280;68989;52.032;5.152;2024-02-26T03:40:18;100210.40;;;9.93;63.14
79538;BME280;68989;52.032;5.152;2024-02-26T03:42:45;100206.66;;;9.89;63.02
79538;BME280;68989;52.032;5.152;2024-02-26T03:45:12;100209.52;;;9.71;63.32
79538;BME280;68989;52.032;5.152;2024-02-26T03:47:39;100209.76;;;9.77;63.53
79538;BME280;68989;52.032;5.152;2024-02-26T03:50:07;100203.53;;;9.79;63.33
79538;BME280;68989;52.032;5.152;2024-02-26T03:52:34;100209.91;;;9.69;63.37
79538;BME280;68989;52.032;5.152;2024-02-26T03:55:01;100204.22;;;9.71;63.51
79538;BME280;68989;52.032;5.152;2024-02-26T03:57:28;100211.18;;;9.65;63.87
79538;BME280;68989;52.032;5.152;2024-02-26T03:59:54;100215.27;;;9.64;63.45
79538;BME280;68989;52.032;5.152;2024-02-26T04:02:21;100211.92;;;9.69;63.42
79538;BME280;68989;52.032;5.152;2024-02-26T04:04:48;100208.55;;;9.61;63.69
79538;BME280;68989;52.032;5.152;2024-02-26T04:07:15;100213.48;;;9.57;63.82
79538;BME280;68989;52.032;5.152;2024-02-26T04:09:42;100211.31;;;9.69;63.85
79538;BME280;68989;52.032;5.152;2024-02-26T04:12:10;100214.55;;;9.65;63.60
79538;BME280;68989;52.032;5.152;2024-02-26T04:14:37;100216.82;;;9.54;64.06
79538;BME280;68989;52.032;5.152;2024-02-26T04:17:03;100220.23;;;9.60;63.97
79538;BME280;68989;52.032;5.152;2024-02-26T04:19:30;100216.56;;;9.65;63.64
79538;BME280;68989;52.032;5.152;2024-02-26T04:21:57;100221.69;;;9.67;63.54
79538;BME280;68989;52.032;5.152;2024-02-26T04:24:24;100214.10;;;9.77;63.54
79538;BME280;68989;52.032;5.152;2024-02-26T04:26:52;100223.22;;;9.75;63.33
79538;BME280;68989;52.032;5.152;2024-02-26T04:29:18;100223.61;;;9.67;63.54
79538;BME280;68989;52.032;5.152;2024-02-26T04:31:46;100231.17;;;9.67;63.72
79538;BME280;68989;52.032;5.152;2024-02-26T04:34:13;100235.34;;;9.68;63.60
79538;BME280;68989;52.032;5.152;2024-02-26T04:36:40;100233.25;;;9.71;63.65
79538;BME280;68989;52.032;5.152;2024-02-26T04:39:07;100232.56;;;9.72;63.24
79538;BME280;68989;52.032;5.152;2024-02-26T04:41:34;100239.65;;;9.63;63.49
79538;BME280;68989;52.032;5.152;2024-02-26T04:44:01;100236.37;;;9.64;63.59
79538;BME280;68989;52.032;5.152;2024-02-26T04:46:28;100232.67;;;9.60;63.44
79538;BME280;68989;52.032;5.152;2024-02-26T04:48:55;100235.76;;;9.53;63.57
79538;BME280;68989;52.032;5.152;2024-02-26T04:51:22;100234.83;;;9.49;63.77
79538;BME280;68989;52.032;5.152;2024-02-26T04:53:49;100240.36;;;9.55;63.93
79538;BME280;68989;52.032;5.152;2024-02-26T04:56:15;100243.35;;;9.50;63.65
79538;BME280;68989;52.032;5.152;2024-02-26T04:58:42;100245.98;;;9.48;64.05
79538;BME280;68989;52.032;5.152;2024-02-26T05:01:09;100252.37;;;9.40;64.28
79538;BME280;68989;52.032;5.152;2024-02-26T05:03:36;100255.19;;;9.44;64.15
79538;BME280;68989;52.032;5.152;2024-02-26T05:06:04;100255.99;;;9.54;64.42
79538;BME280;68989;52.032;5.152;2024-02-26T05:08:32;100255.34;;;9.59;63.89
79538;BME280;68989;52.032;5.152;2024-02-26T05:10:59;100259.48;;;9.63;63.76
79538;BME280;68989;52.032;5.152;2024-02-26T05:13:25;100264.22;;;9.73;63.84
79538;BME280;68989;52.032;5.152;2024-02-26T05:15:54;100261.22;;;9.67;63.54
79538;BME280;68989;52.032;5.152;2024-02-26T05:18:22;100267.74;;;9.67;63.74
79538;BME280;68989;52.032;5.152;2024-02-26T05:20:49;100266.20;;;9.56;63.85
79538;BME280;68989;52.032;5.152;2024-02-26T05:23:15;100259.33;;;9.43;64.49
79538;BME280;68989;52.032;5.152;2024-02-26T05:25:43;100257.63;;;9.47;64.59
79538;BME280;68989;52.032;5.152;2024-02-26T05:28:10;100258.49;;;9.44;64.47
79538;BME280;68989;52.032;5.152;2024-02-26T05:30:37;100262.81;;;9.45;64.41
79538;BME280;68989;52.032;5.152;2024-02-26T05:33:04;100270.28;;;9.51;64.35
79538;BME280;68989;52.032;5.152;2024-02-26T05:35:31;100271.98;;;9.49;64.28
79538;BME280;68989;52.032;5.152;2024-02-26T05:37:58;100272.88;;;9.40;64.56
79538;BME280;68989;52.032;5.152;2024-02-26T05:40:25;100277.95;;;9.29;65.29
79538;BME280;68989;52.032;5.152;2024-02-26T05:42:52;100280.50;;;9.34;64.98
79538;BME280;68989;52.032;5.152;2024-02-26T05:45:19;100275.62;;;9.44;64.60
79538;BME280;68989;52.032;5.152;2024-02-26T05:47:46;100274.53;;;9.46;64.51
79538;BME280;68989;52.032;5.152;2024-02-26T05:50:13;100278.50;;;9.38;64.82
79538;BME280;68989;52.032;5.152;2024-02-26T05:52:40;100290.37;;;9.46;64.79
79538;BME280;68989;52.032;5.152;2024-02-26T05:55:08;100292.04;;;9.52;64.80
79538;BME280;68989;52.032;5.152;2024-02-26T05:57:36;100296.63;;;9.42;64.48
79538;BME280;68989;52.032;5.152;2024-02-26T06:00:03;100299.43;;;9.31;64.90
79538;BME280;68989;52.032;5.152;2024-02-26T06:02:31;100299.84;;;9.27;65.13
79538;BME280;68989;52.032;5.152;2024-02-26T06:04:58;100299.99;;;9.28;65.05
79538;BME280;68989;52.032;5.152;2024-02-26T06:07:25;100296.16;;;9.40;64.92
79538;BME280;68989;52.032;5.152;2024-02-26T06:09:52;100302.90;;;9.44;64.71
79538;BME280;68989;52.032;5.152;2024-02-26T06:12:19;100307.58;;;9.52;64.50
79538;BME280;68989;52.032;5.152;2024-02-26T06:14:46;100316.64;;;9.44;64.50
79538;BME280;68989;52.032;5.152;2024-02-26T06:17:13;100321.31;;;9.40;65.09
79538;BME280;68989;52.032;5.152;2024-02-26T06:19:40;100311.81;;;9.44;64.99
79538;BME280;68989;52.032;5.152;2024-02-26T06:22:08;100316.32;;;9.43;64.99
79538;BME280;68989;52.032;5.152;2024-02-26T06:24:35;100317.50;;;9.44;65.37
79538;BME280;68989;52.032;5.152;2024-02-26T06:27:01;100321.24;;;9.53;64.93
79538;BME280;68989;52.032;5.152;2024-02-26T06:29:29;100328.66;;;9.57;64.87
79538;BME280;68989;52.032;5.152;2024-02-26T06:31:56;100337.77;;;9.34;64.32
79538;BME280;68989;52.032;5.152;2024-02-26T06:34:23;100337.09;;;9.36;65.11
79538;BME280;68989;52.032;5.152;2024-02-26T06:36:50;100337.87;;;9.42;65.16
79538;BME280;68989;52.032;5.152;2024-02-26T06:39:17;100338.49;;;9.52;64.84
79538;BME280;68989;52.032;5.152;2024-02-26T06:41:44;100343.74;;;9.57;64.75
79538;BME280;68989;52.032;5.152;2024-02-26T06:44:11;100348.83;;;9.41;65.20
79538;BME280;68989;52.032;5.152;2024-02-26T06:46:38;100349.68;;;9.37;65.65
79538;BME280;68989;52.032;5.152;2024-02-26T06:49:04;100357.53;;;9.33;65.85
79538;BME280;68989;52.032;5.152;2024-02-26T06:51:32;100353.48;;;9.43;65.70
79538;BME280;68989;52.032;5.152;2024-02-26T06:53:59;100353.15;;;9.49;65.13
79538;BME280;68989;52.032;5.152;2024-02-26T06:56:26;100359.14;;;9.38;65.42
79538;BME280;68989;52.032;5.152;2024-02-26T06:58:53;100363.80;;;9.34;65.65
79538;BME280;68989;52.032;5.152;2024-02-26T07:01:20;100366.19;;;9.18;66.35
79538;BME280;68989;52.032;5.152;2024-02-26T07:03:47;100367.99;;;9.17;66.56
79538;BME280;68989;52.032;5.152;2024-02-26T07:06:14;100372.83;;;9.12;66.84
79538;BME280;68989;52.032;5.152;2024-02-26T07:08:41;100378.21;;;9.11;67.14
79538;BME280;68989;52.032;5.152;2024-02-26T07:11:08;100379.30;;;9.06;67.30
79538;BME280;68989;52.032;5.152;2024-02-26T07:13:35;100388.79;;;9.24;67.13
79538;BME280;68989;52.032;5.152;2024-02-26T07:16:04;100390.98;;;9.30;66.84
79538;BME280;68989;52.032;5.152;2024-02-26T07:18:30;100400.86;;;9.36;67.05
79538;BME280;68989;52.032;5.152;2024-02-26T07:20:57;100396.06;;;9.41;66.58
79538;BME280;68989;52.032;5.152;2024-02-26T07:23:24;100399.19;;;9.41;66.83
79538;BME280;68989;52.032;5.152;2024-02-26T07:25:50;100406.16;;;9.49;66.65
79538;BME280;68989;52.032;5.152;2024-02-26T07:28:17;100407.60;;;9.48;66.73
79538;BME280;68989;52.032;5.152;2024-02-26T07:30:45;100411.12;;;9.49;66.61
79538;BME280;68989;52.032;5.152;2024-02-26T07:33:12;100406.43;;;9.57;66.38
79538;BME280;68989;52.032;5.152;2024-02-26T07:35:39;100407.92;;;9.46;66.83
79538;BME280;68989;52.032;5.152;2024-02-26T07:38:07;100413.88;;;9.47;67.12
79538;BME280;68989;52.032;5.152;2024-02-26T07:40:34;100415.36;;;9.50;67.01
79538;BME280;68989;52.032;5.152;2024-02-26T07:43:01;100419.96;;;9.48;66.72
79538;BME280;68989;52.032;5.152;2024-02-26T07:45:28;100429.71;;;9.47;67.14
79538;BME280;68989;52.032;5.152;2024-02-26T07:47:54;100427.65;;;9.48;67.29
79538;BME280;68989;52.032;5.152;2024-02-26T07:50:22;100434.54;;;9.44;67.29
79538;BME280;68989;52.032;5.152;2024-02-26T07:52:49;100436.43;;;9.44;67.41
79538;BME280;68989;52.032;5.152;2024-02-26T07:55:16;100444.52;;;9.37;67.81
79538;BME280;68989;52.032;5.152;2024-02-26T07:57:43;100451.75;;;9.45;67.59
79538;BME280;68989;52.032;5.152;2024-02-26T08:00:10;100452.33;;;9.50;67.36
79538;BME280;68989;52.032;5.152;2024-02-26T08:02:37;100455.38;;;9.52;67.33
79538;BME280;68989;52.032;5.152;2024-02-26T08:05:04;100454.61;;;9.54;67.57
79538;BME280;68989;52.032;5.152;2024-02-26T08:07:32;100460.87;;;9.50;67.49
79538;BME280;68989;52.032;5.152;2024-02-26T08:09:58;100462.11;;;9.46;67.71
79538;BME280;68989;52.032;5.152;2024-02-26T08:12:25;100469.10;;;9.31;68.14
79538;BME280;68989;52.032;5.152;2024-02-26T08:14:53;100477.51;;;9.33;68.56
79538;BME280;68989;52.032;5.152;2024-02-26T08:17:20;100471.53;;;9.38;68.41
79538;BME280;68989;52.032;5.152;2024-02-26T08:19:47;100478.44;;;9.34;68.66
79538;BME280;68989;52.032;5.152;2024-02-26T08:22:15;100476.86;;;9.39;68.70
79538;BME280;68989;52.032;5.152;2024-02-26T08:24:42;100479.28;;;9.33;68.56
79538;BME280;68989;52.032;5.152;2024-02-26T08:27:10;100484.94;;;9.25;69.13
79538;BME280;68989;52.032;5.152;2024-02-26T08:29:37;100488.24;;;9.24;69.55
79538;BME280;68989;52.032;5.152;2024-02-26T08:32:05;100494.32;;;9.38;69.17
79538;BME280;68989;52.032;5.152;2024-02-26T08:34:32;100495.20;;;9.48;68.63
79538;BME280;68989;52.032;5.152;2024-02-26T08:36:59;100499.67;;;9.56;68.34
79538;BME280;68989;52.032;5.152;2024-02-26T08:39:26;100501.54;;;9.71;67.88
79538;BME280;68989;52.032;5.152;2024-02-26T08:41:53;100499.31;;;9.62;68.09
79538;BME280;68989;52.032;5.152;2024-02-26T08:44:20;100507.74;;;9.58;67.97
79538;BME280;68989;52.032;5.152;2024-02-26T08:46:47;100506.69;;;9.54;67.96
79538;BME280;68989;52.032;5.152;2024-02-26T08:49:14;100508.46;;;9.57;68.29
79538;BME280;68989;52.032;5.152;2024-02-26T08:51:41;100519.21;;;9.59;68.49
79538;BME280;68989;52.032;5.152;2024-02-26T08:54:08;100522.33;;;9.71;67.67
79538;BME280;68989;52.032;5.152;2024-02-26T08:56:35;100519.48;;;9.51;68.01
79538;BME280;68989;52.032;5.152;2024-02-26T08:59:02;100523.58;;;9.49;68.46
79538;BME280;68989;52.032;5.152;2024-02-26T09:01:29;100530.97;;;9.45;68.20
79538;BME280;68989;52.032;5.152;2024-02-26T09:03:56;100529.95;;;9.40;68.82
79538;BME280;68989;52.032;5.152;2024-02-26T09:06:23;100534.09;;;9.30;68.60
79538;BME280;68989;52.032;5.152;2024-02-26T09:08:51;100540.32;;;9.25;69.25
79538;BME280;68989;52.032;5.152;2024-02-26T09:11:17;100535.71;;;9.23;69.18
79538;BME280;68989;52.032;5.152;2024-02-26T09:13:44;100539.71;;;9.42;68.94
79538;BME280;68989;52.032;5.152;2024-02-26T09:16:12;100546.11;;;9.36;68.56
79538;BME280;68989;52.032;5.152;2024-02-26T09:18:39;100550.93;;;9.33;68.86
79538;BME280;68989;52.032;5.152;2024-02-26T09:21:06;100552.02;;;9.45;68.70
79538;BME280;68989;52.032;5.152;2024-02-26T09:23:34;100553.32;;;9.65;68.46
79538;BME280;68989;52.032;5.152;2024-02-26T09:26:01;100555.25;;;9.49;68.13
79538;BME280;68989;52.032;5.152;2024-02-26T09:28:28;100563.08;;;9.42;68.53
79538;BME280;68989;52.032;5.152;2024-02-26T09:30:55;100564.64;;;9.32;68.91
79538;BME280;68989;52.032;5.152;2024-02-26T09:33:23;100564.50;;;9.29;68.88
79538;BME280;68989;52.032;5.152;2024-02-26T09:35:50;100566.16;;;9.41;69.16
79538;BME280;68989;52.032;5.152;2024-02-26T09:38:17;100573.23;;;9.40;68.68
79538;BME280;68989;52.032;5.152;2024-02-26T09:40:44;100571.94;;;9.49;68.46
79538;BME280;68989;52.032;5.152;2024-02-26T09:43:14;100575.05;;;9.49;68.25
79538;BME280;68989;52.032;5.152;2024-02-26T09:45:42;100574.08;;;9.42;68.62
79538;BME280;68989;52.032;5.152;2024-02-26T09:48:10;100579.61;;;9.52;68.16
79538;BME280;68989;52.032;5.152;2024-02-26T09:50:40;100589.70;;;9.48;68.37
79538;BME280;68989;52.032;5.152;2024-02-26T09:53:10;100585.42;;;9.41;68.32
79538;BME280;68989;52.032;5.152;2024-02-26T09:55:38;100596.76;;;9.53;68.54
79538;BME280;68989;52.032;5.152;2024-02-26T09:58:05;100593.40;;;9.44;68.56
79538;BME280;68989;52.032;5.152;2024-02-26T10:00:37;100598.15;;;9.27;68.99
79538;BME280;68989;52.032;5.152;2024-02-26T10:03:06;100605.45;;;9.31;69.31
79538;BME280;68989;52.032;5.152;2024-02-26T10:05:37;100602.33;;;9.35;68.99
79538;BME280;68989;52.032;5.152;2024-02-26T10:08:05;100605.71;;;9.30;69.27
79538;BME280;68989;52.032;5.152;2024-02-26T10:10:33;100613.75;;;9.27;69.66
79538;BME280;68989;52.032;5.152;2024-02-26T10:13:00;100612.68;;;9.23;69.63
79538;BME280;68989;52.032;5.152;2024-02-26T10:15:27;100620.07;;;9.22;69.77
79538;BME280;68989;52.032;5.152;2024-02-26T10:17:54;100631.93;;;9.15;70.16
79538;BME280;68989;52.032;5.152;2024-02-26T10:20:22;100629.56;;;9.30;70.00
79538;BME280;68989;52.032;5.152;2024-02-26T10:22:49;100628.30;;;9.42;69.12
79538;BME280;68989;52.032;5.152;2024-02-26T10:25:18;100635.61;;;9.43;69.31
79538;BME280;68989;52.032;5.152;2024-02-26T10:27:45;100632.01;;;9.55;68.84
79538;BME280;68989;52.032;5.152;2024-02-26T10:30:17;100646.43;;;9.56;68.78
79538;BME280;68989;52.032;5.152;2024-02-26T10:32:44;100654.41;;;9.50;68.98
79538;BME280;68989;52.032;5.152;2024-02-26T10:35:12;100655.99;;;9.42;69.44
79538;BME280;68989;52.032;5.152;2024-02-26T10:37:40;100657.46;;;9.45;69.63
79538;BME280;68989;52.032;5.152;2024-02-26T10:40:10;100659.39;;;9.44;69.69
79538;BME280;68989;52.032;5.152;2024-02-26T10:42:37;100668.18;;;9.55;69.52
79538;BME280;68989;52.032;5.152;2024-02-26T10:45:05;100669.24;;;9.71;68.91
79538;BME280;68989;52.032;5.152;2024-02-26T10:47:33;100676.33;;;9.88;68.30
79538;BME280;68989;52.032;5.152;2024-02-26T10:50:02;100683.27;;;9.74;68.19
79538;BME280;68989;52.032;5.152;2024-02-26T10:52:31;100683.61;;;9.59;69.23
79538;BME280;68989;52.032;5.152;2024-02-26T10:55:01;100688.82;;;9.74;69.00
79538;BME280;68989;52.032;5.152;2024-02-26T10:57:29;100695.85;;;9.83;68.79
79538;BME280;68989;52.032;5.152;2024-02-26T11:00:00;100699.53;;;9.91;68.23
79538;BME280;68989;52.032;5.152;2024-02-26T11:02:27;100699.53;;;9.90;68.16
79538;BME280;68989;52.032;5.152;2024-02-26T11:04:55;100700.81;;;9.93;68.33
79538;BME280;68989;52.032;5.152;2024-02-26T11:07:23;100704.10;;;9.91;68.53
79538;BME280;68989;52.032;5.152;2024-02-26T11:09:51;100708.91;;;9.94;68.33
79538;BME280;68989;52.032;5.152;2024-02-26T11:12:21;100717.48;;;9.86;68.81
79538;BME280;68989;52.032;5.152;2024-02-26T11:14:49;100717.68;;;9.90;68.87
79538;BME280;68989;52.032;5.152;2024-02-26T11:17:17;100718.93;;;9.88;68.81
79538;BME280;68989;52.032;5.152;2024-02-26T11:19:46;100720.07;;;9.76;69.23
79538;BME280;68989;52.032;5.152;2024-02-26T11:22:16;100724.69;;;9.77;69.30
79538;BME280;68989;52.032;5.152;2024-02-26T11:24:43;100725.03;;;9.57;69.70
79538;BME280;68989;52.032;5.152;2024-02-26T11:27:11;100730.58;;;9.61;70.34
79538;BME280;68989;52.032;5.152;2024-02-26T11:29:43;100730.39;;;9.72;70.20
79538;BME280;68989;52.032;5.152;2024-02-26T11:32:12;100733.71;;;9.77;69.96
79538;BME280;68989;52.032;5.152;2024-02-26T11:34:39;100736.55;;;9.75;69.79
79538;BME280;68989;52.032;5.152;2024-02-26T11:37:11;100738.94;;;9.87;69.52
79538;BME280;68989;52.032;5.152;2024-02-26T11:39:40;100738.15;;;9.83;69.40
79538;BME280;68989;52.032;5.152;2024-02-26T11:42:08;100743.27;;;9.85;69.24
79538;BME280;68989;52.032;5.152;2024-02-26T11:44:35;100744.40;;;9.84;69.49
79538;BME280;68989;52.032;5.152;2024-02-26T11:47:11;100739.84;;;9.91;69.53
79538;BME280;68989;52.032;5.152;2024-02-26T11:49:38;100747.61;;;10.03;68.90
79538;BME280;68989;52.032;5.152;2024-02-26T11:52:08;100759.14;;;9.92;68.82
79538;BME280;68989;52.032;5.152;2024-02-26T11:54:40;100761.97;;;9.81;69.09
79538;BME280;68989;52.032;5.152;2024-02-26T11:57:28;100765.75;;;9.87;69.36
79538;BME280;68989;52.032;5.152;2024-02-26T11:59:56;100765.73;;;9.92;69.01
79538;BME280;68989;52.032;5.152;2024-02-26T12:02:55;100769.42;;;10.10;68.75
79538;BME280;68989;52.032;5.152;2024-02-26T12:05:22;100774.77;;;10.17;68.45
79538;BME280;68989;52.032;5.152;2024-02-26T12:07:52;100776.28;;;10.15;67.90
79538;BME280;68989;52.032;5.152;2024-02-26T12:10:23;100783.10;;;10.13;68.05
79538;BME280;68989;52.032;5.152;2024-02-26T12:12:53;100775.19;;;9.96;68.15
79538;BME280;68989;52.032;5.152;2024-02-26T12:15:23;100777.85;;;9.93;69.05
79538;BME280;68989;52.032;5.152;2024-02-26T12:17:51;100781.36;;;10.07;68.88
79538;BME280;68989;52.032;5.152;2024-02-26T12:20:18;100790.90;;;10.21;68.56
79538;BME280;68989;52.032;5.152;2024-02-26T12:22:46;100789.92;;;10.27;68.19
79538;BME280;68989;52.032;5.152;2024-02-26T12:25:13;100796.97;;;10.34;68.03
79538;BME280;68989;52.032;5.152;2024-02-26T12:27:40;100798.10;;;10.19;67.77
79538;BME280;68989;52.032;5.152;2024-02-26T12:30:08;100803.03;;;10.19;68.00
79538;BME280;68989;52.032;5.152;2024-02-26T12:32:36;100800.35;;;10.16;68.12
79538;BME280;68989;52.032;5.152;2024-02-26T12:35:05;100802.47;;;10.27;68.20
79538;BME280;68989;52.032;5.152;2024-02-26T12:37:33;100804.61;;;10.24;67.85
79538;BME280;68989;52.032;5.152;2024-02-26T12:40:00;100803.58;;;10.19;67.98
79538;BME280;68989;52.032;5.152;2024-02-26T12:42:27;100808.79;;;10.14;67.82
79538;BME280;68989;52.032;5.152;2024-02-26T12:44:55;100808.55;;;10.10;68.13
79538;BME280;68989;52.032;5.152;2024-02-26T12:47:22;100818.47;;;9.93;68.38
79538;BME280;68989;52.032;5.152;2024-02-26T12:49:49;100817.56;;;9.88;68.98
79538;BME280;68989;52.032;5.152;2024-02-26T12:52:17;100827.39;;;9.89;68.96
79538;BME280;68989;52.032;5.152;2024-02-26T12:54:44;100828.19;;;9.93;68.91
79538;BME280;68989;52.032;5.152;2024-02-26T12:57:11;100832.91;;;9.98;68.70
79538;BME280;68989;52.032;5.152;2024-02-26T12:59:39;100834.06;;;10.02;68.94